sensor_id;sensor_type;location;lat;lon;timestamp;pressure;altitude;pressure_sealevel;temperature;humidity
20825;BME280;10573;50.936;6.978;2023-03-13T00:00:17;100161.84;;;13.74;56.88
20825;BME280;10573;50.936;6.978;2023-03-13T00:02:43;100152.63;;;13.75;57.04
20825;BME280;10573;50.936;6.978;2023-03-13T00:05:12;100154.31;;;13.45;57.68
20825;BME280;10573;50.936;6.978;2023-03-13T00:07:38;100148.00;;;13.76;56.85
20825;BME280;10573;50.936;6.978;2023-03-13T00:10:04;100145.69;;;13.65;57.23
20825;BME280;10573;50.936;6.978;2023-03-13T00:12:30;100139.44;;;13.48;57.55
20825;BME280;10573;50.936;6.978;2023-03-13T00:14:55;100127.91;;;13.61;57.49
20825;BME280;10573;50.936;6.978;2023-03-13T00:17:21;100131.44;;;13.69;57.28
20825;BME280;10573;50.936;6.978;2023-03-13T00:19:46;100116.97;;;13.61;57.54
20825;BME280;10573;50.936;6.978;2023-03-13T00:22:12;100107.66;;;13.70;57.28
20825;BME280;10573;50.936;6.978;2023-03-13T00:24:37;100099.94;;;13.73;57.41
20825;BME280;10573;50.936;6.978;2023-03-13T00:27:03;100094.44;;;13.73;57.48
20825;BME280;10573;50.936;6.978;2023-03-13T00:29:31;100082.53;;;13.89;56.95
20825;BME280;10573;50.936;6.978;2023-03-13T00:31:57;100084.72;;;13.94;57.06
20825;BME280;10573;50.936;6.978;2023-03-13T00:34:23;100079.56;;;13.76;57.45
20825;BME280;10573;50.936;6.978;2023-03-13T00:36:52;100067.19;;;13.80;57.46
20825;BME280;10573;50.936;6.978;2023-03-13T00:39:17;100061.19;;;13.85;57.40
20825;BME280;10573;50.936;6.978;2023-03-13T00:41:43;100062.34;;;13.67;57.91
20825;BME280;10573;50.936;6.978;2023-03-13T00:44:09;100056.81;;;14.14;56.91
20825;BME280;10573;50.936;6.978;2023-03-13T00:46:34;100056.88;;;14.05;57.43
20825;BME280;10573;50.936;6.978;2023-03-13T00:49:00;100059.94;;;13.72;59.04
20825;BME280;10573;50.936;6.978;2023-03-13T00:51:26;100050.00;;;14.09;58.28
20825;BME280;10573;50.936;6.978;2023-03-13T00:53:51;100048.22;;;13.79;59.38
20825;BME280;10573;50.936;6.978;2023-03-13T00:56:19;100046.16;;;13.81;59.28
20825;BME280;10573;50.936;6.978;2023-03-13T00:58:46;100031.69;;;13.72;59.76
20825;BME280;10573;50.936;6.978;2023-03-13T01:01:26;100026.91;;;13.89;59.53
20825;BME280;10573;50.936;6.978;2023-03-13T01:03:58;100032.91;;;13.69;59.64
20825;BME280;10573;50.936;6.978;2023-03-13T01:06:26;100032.88;;;13.92;59.42
20825;BME280;10573;50.936;6.978;2023-03-13T01:08:53;100031.06;;;13.85;59.60
20825;BME280;10573;50.936;6.978;2023-03-13T01:11:39;100025.72;;;13.91;59.52
20825;BME280;10573;50.936;6.978;2023-03-13T01:14:08;100020.88;;;13.93;59.20
20825;BME280;10573;50.936;6.978;2023-03-13T01:16:35;100018.72;;;13.89;59.58
20825;BME280;10573;50.936;6.978;2023-03-13T01:19:05;100007.84;;;13.81;59.83
20825;BME280;10573;50.936;6.978;2023-03-13T01:21:31;99997.66;;;14.04;59.43
20825;BME280;10573;50.936;6.978;2023-03-13T01:23:56;99997.56;;;13.98;59.60
20825;BME280;10573;50.936;6.978;2023-03-13T01:26:23;99999.16;;;13.92;59.80
20825;BME280;10573;50.936;6.978;2023-03-13T01:28:49;99997.75;;;13.96;59.86
20825;BME280;10573;50.936;6.978;2023-03-13T01:33:44;99993.91;;;14.05;59.91
20825;BME280;10573;50.936;6.978;2023-03-13T01:36:11;99978.03;;;13.86;60.24
20825;BME280;10573;50.936;6.978;2023-03-13T01:38:37;99979.97;;;13.77;60.52
20825;BME280;10573;50.936;6.978;2023-03-13T01:41:04;99973.22;;;14.03;60.34
20825;BME280;10573;50.936;6.978;2023-03-13T01:43:32;99967.94;;;14.01;60.32
20825;BME280;10573;50.936;6.978;2023-03-13T01:46:02;99963.03;;;13.97;60.50
20825;BME280;10573;50.936;6.978;2023-03-13T01:54:22;99953.91;;;13.81;61.22
20825;BME280;10573;50.936;6.978;2023-03-13T01:56:50;99951.38;;;13.80;61.09
20825;BME280;10573;50.936;6.978;2023-03-13T01:59:26;99939.88;;;13.99;60.73
20825;BME280;10573;50.936;6.978;2023-03-13T02:01:56;99931.38;;;13.94;60.74
20825;BME280;10573;50.936;6.978;2023-03-13T02:04:23;99924.59;;;14.05;60.65
20825;BME280;10573;50.936;6.978;2023-03-13T02:06:53;99907.47;;;14.03;60.98
20825;BME280;10573;50.936;6.978;2023-03-13T02:09:22;99894.47;;;14.05;60.98
20825;BME280;10573;50.936;6.978;2023-03-13T02:11:53;99898.53;;;13.94;61.07
20825;BME280;10573;50.936;6.978;2023-03-13T02:14:24;99890.47;;;13.92;61.31
20825;BME280;10573;50.936;6.978;2023-03-13T02:16:51;99883.03;;;13.71;61.79
20825;BME280;10573;50.936;6.978;2023-03-13T02:19:47;99874.63;;;14.03;61.42
20825;BME280;10573;50.936;6.978;2023-03-13T02:27:47;99851.66;;;14.19;61.91
20825;BME280;10573;50.936;6.978;2023-03-13T02:30:15;99853.84;;;14.08;62.29
20825;BME280;10573;50.936;6.978;2023-03-13T02:32:42;99843.09;;;13.92;63.02
20825;BME280;10573;50.936;6.978;2023-03-13T02:35:11;99845.09;;;13.98;63.07
20825;BME280;10573;50.936;6.978;2023-03-13T02:37:40;99845.25;;;13.82;63.79
20825;BME280;10573;50.936;6.978;2023-03-13T02:40:08;99846.00;;;13.46;65.43
20825;BME280;10573;50.936;6.978;2023-03-13T02:42:37;99848.41;;;13.25;66.70
20825;BME280;10573;50.936;6.978;2023-03-13T02:45:05;99850.88;;;13.35;67.14
20825;BME280;10573;50.936;6.978;2023-03-13T02:47:31;99850.66;;;13.22;67.69
20825;BME280;10573;50.936;6.978;2023-03-13T02:49:56;99842.13;;;13.17;67.87
20825;BME280;10573;50.936;6.978;2023-03-13T02:52:27;99840.66;;;13.52;67.43
20825;BME280;10573;50.936;6.978;2023-03-13T02:54:59;99843.03;;;13.32;67.75
20825;BME280;10573;50.936;6.978;2023-03-13T02:57:26;99845.81;;;13.24;68.55
20825;BME280;10573;50.936;6.978;2023-03-13T02:59:51;99842.22;;;13.47;67.84
20825;BME280;10573;50.936;6.978;2023-03-13T03:02:17;99830.91;;;13.50;67.64
20825;BME280;10573;50.936;6.978;2023-03-13T03:04:42;99819.50;;;13.61;67.21
20825;BME280;10573;50.936;6.978;2023-03-13T03:07:08;99821.31;;;13.54;67.45
20825;BME280;10573;50.936;6.978;2023-03-13T03:09:33;99820.41;;;13.38;67.67
20825;BME280;10573;50.936;6.978;2023-03-13T03:11:58;99806.84;;;13.60;67.11
20825;BME280;10573;50.936;6.978;2023-03-13T03:14:24;99807.81;;;13.52;67.14
20825;BME280;10573;50.936;6.978;2023-03-13T03:16:49;99797.13;;;13.57;67.36
20825;BME280;10573;50.936;6.978;2023-03-13T03:19:15;99799.84;;;13.42;67.29
20825;BME280;10573;50.936;6.978;2023-03-13T03:21:40;99783.09;;;13.61;67.18
20825;BME280;10573;50.936;6.978;2023-03-13T03:24:06;99792.03;;;13.69;66.83
20825;BME280;10573;50.936;6.978;2023-03-13T03:26:32;99784.50;;;13.71;66.88
20825;BME280;10573;50.936;6.978;2023-03-13T03:28:57;99779.88;;;13.57;66.94
20825;BME280;10573;50.936;6.978;2023-03-13T03:31:23;99786.84;;;13.74;66.58
20825;BME280;10573;50.936;6.978;2023-03-13T03:33:49;99786.19;;;13.72;66.67
20825;BME280;10573;50.936;6.978;2023-03-13T03:36:18;99798.66;;;13.90;66.27
20825;BME280;10573;50.936;6.978;2023-03-13T03:38:44;99791.84;;;13.86;66.22
20825;BME280;10573;50.936;6.978;2023-03-13T03:41:11;99786.19;;;13.87;66.19
20825;BME280;10573;50.936;6.978;2023-03-13T03:43:38;99791.75;;;13.64;66.53
20825;BME280;10573;50.936;6.978;2023-03-13T03:46:03;99777.69;;;13.37;67.76
20825;BME280;10573;50.936;6.978;2023-03-13T03:48:29;99783.28;;;13.74;66.71
20825;BME280;10573;50.936;6.978;2023-03-13T03:50:54;99780.22;;;13.84;66.45
20825;BME280;10573;50.936;6.978;2023-03-13T03:53:20;99768.03;;;14.01;66.11
20825;BME280;10573;50.936;6.978;2023-03-13T03:55:45;99758.53;;;14.19;65.58
20825;BME280;10573;50.936;6.978;2023-03-13T03:58:11;99759.97;;;13.63;66.78
20825;BME280;10573;50.936;6.978;2023-03-13T04:00:37;99757.41;;;13.76;66.81
20825;BME280;10573;50.936;6.978;2023-03-13T04:03:02;99745.19;;;13.94;66.37
20825;BME280;10573;50.936;6.978;2023-03-13T04:05:28;99742.75;;;13.69;66.82
20825;BME280;10573;50.936;6.978;2023-03-13T04:07:53;99741.50;;;13.87;66.44
20825;BME280;10573;50.936;6.978;2023-03-13T04:10:20;99743.00;;;13.89;66.98
20825;BME280;10573;50.936;6.978;2023-03-13T04:12:45;99735.31;;;14.15;65.99
20825;BME280;10573;50.936;6.978;2023-03-13T04:15:11;99749.84;;;14.15;65.96
20825;BME280;10573;50.936;6.978;2023-03-13T04:17:36;99748.47;;;14.26;65.89
20825;BME280;10573;50.936;6.978;2023-03-13T04:20:02;99739.13;;;13.99;66.53
20825;BME280;10573;50.936;6.978;2023-03-13T04:22:29;99743.41;;;14.23;66.18
20825;BME280;10573;50.936;6.978;2023-03-13T04:24:55;99730.75;;;14.43;65.41
20825;BME280;10573;50.936;6.978;2023-03-13T04:27:21;99731.69;;;14.29;65.98
20825;BME280;10573;50.936;6.978;2023-03-13T04:29:46;99730.94;;;14.42;65.66
20825;BME280;10573;50.936;6.978;2023-03-13T04:32:12;99730.94;;;14.42;65.66
20825;BME280;10573;50.936;6.978;2023-03-13T04:34:37;99727.09;;;14.36;66.31
20825;BME280;10573;50.936;6.978;2023-03-13T04:37:03;99726.19;;;14.51;66.13
20825;BME280;10573;50.936;6.978;2023-03-13T04:39:28;99730.63;;;14.30;66.40
20825;BME280;10573;50.936;6.978;2023-03-13T04:41:54;99725.94;;;14.24;67.15
20825;BME280;10573;50.936;6.978;2023-03-13T04:44:21;99719.09;;;14.35;66.92
20825;BME280;10573;50.936;6.978;2023-03-13T04:46:47;99722.91;;;14.40;66.73
20825;BME280;10573;50.936;6.978;2023-03-13T04:49:13;99729.56;;;14.53;66.22
20825;BME280;10573;50.936;6.978;2023-03-13T04:51:40;99726.19;;;14.72;65.58
20825;BME280;10573;50.936;6.978;2023-03-13T04:54:05;99719.00;;;14.50;66.67
20825;BME280;10573;50.936;6.978;2023-03-13T04:56:31;99717.84;;;14.16;67.66
20825;BME280;10573;50.936;6.978;2023-03-13T04:58:56;99707.91;;;14.58;66.48
20825;BME280;10573;50.936;6.978;2023-03-13T05:01:22;99705.03;;;14.44;66.98
20825;BME280;10573;50.936;6.978;2023-03-13T05:03:47;99700.22;;;14.47;66.81
20825;BME280;10573;50.936;6.978;2023-03-13T05:06:12;99695.38;;;14.49;66.78
20825;BME280;10573;50.936;6.978;2023-03-13T05:08:38;99699.81;;;14.50;66.75
20825;BME280;10573;50.936;6.978;2023-03-13T05:11:04;99700.28;;;14.75;65.90
20825;BME280;10573;50.936;6.978;2023-03-13T05:13:29;99698.31;;;14.69;66.18
20825;BME280;10573;50.936;6.978;2023-03-13T05:15:55;99685.34;;;14.77;65.78
20825;BME280;10573;50.936;6.978;2023-03-13T05:18:21;99698.78;;;14.72;65.75
20825;BME280;10573;50.936;6.978;2023-03-13T05:20:49;99699.41;;;14.68;66.05
20825;BME280;10573;50.936;6.978;2023-03-13T05:23:15;99688.72;;;14.80;65.80
20825;BME280;10573;50.936;6.978;2023-03-13T05:25:41;99692.75;;;14.84;65.59
20825;BME280;10573;50.936;6.978;2023-03-13T05:28:08;99696.72;;;14.74;65.71
20825;BME280;10573;50.936;6.978;2023-03-13T05:30:34;99693.03;;;14.96;65.21
20825;BME280;10573;50.936;6.978;2023-03-13T05:32:59;99677.16;;;14.84;65.81
20825;BME280;10573;50.936;6.978;2023-03-13T05:35:25;99681.94;;;14.75;66.21
20825;BME280;10573;50.936;6.978;2023-03-13T05:37:51;99677.25;;;14.69;66.22
20825;BME280;10573;50.936;6.978;2023-03-13T05:40:17;99685.09;;;14.72;66.29
20825;BME280;10573;50.936;6.978;2023-03-13T05:42:44;99692.41;;;14.93;65.73
20825;BME280;10573;50.936;6.978;2023-03-13T05:45:10;99690.19;;;15.10;65.21
20825;BME280;10573;50.936;6.978;2023-03-13T05:47:37;99678.09;;;14.98;65.47
20825;BME280;10573;50.936;6.978;2023-03-13T05:50:06;99670.59;;;15.14;65.03
20825;BME280;10573;50.936;6.978;2023-03-13T05:52:32;99651.69;;;14.97;65.72
20825;BME280;10573;50.936;6.978;2023-03-13T05:54:58;99648.81;;;15.05;65.47
20825;BME280;10573;50.936;6.978;2023-03-13T05:57:24;99650.81;;;14.90;66.00
20825;BME280;10573;50.936;6.978;2023-03-13T05:59:52;99638.25;;;15.02;65.73
20825;BME280;10573;50.936;6.978;2023-03-13T06:02:19;99643.63;;;14.89;66.41
20825;BME280;10573;50.936;6.978;2023-03-13T06:04:45;99668.47;;;14.81;66.68
20825;BME280;10573;50.936;6.978;2023-03-13T06:07:11;99676.38;;;14.97;66.24
20825;BME280;10573;50.936;6.978;2023-03-13T06:09:39;99675.50;;;15.25;65.52
20825;BME280;10573;50.936;6.978;2023-03-13T06:12:07;99675.69;;;15.17;65.88
20825;BME280;10573;50.936;6.978;2023-03-13T06:14:33;99652.41;;;15.06;65.95
20825;BME280;10573;50.936;6.978;2023-03-13T06:17:00;99681.03;;;15.32;65.30
20825;BME280;10573;50.936;6.978;2023-03-13T06:19:25;99690.78;;;15.41;64.97
20825;BME280;10573;50.936;6.978;2023-03-13T06:21:51;99687.38;;;15.32;65.34
20825;BME280;10573;50.936;6.978;2023-03-13T06:24:17;99695.94;;;15.57;64.65
20825;BME280;10573;50.936;6.978;2023-03-13T06:26:42;99697.56;;;15.45;65.06
20825;BME280;10573;50.936;6.978;2023-03-13T06:29:09;99697.13;;;15.41;64.96
20825;BME280;10573;50.936;6.978;2023-03-13T06:31:35;99696.59;;;15.59;64.82
20825;BME280;10573;50.936;6.978;2023-03-13T06:34:00;99701.06;;;15.67;64.36
20825;BME280;10573;50.936;6.978;2023-03-13T06:36:25;99693.63;;;15.61;64.55
20825;BME280;10573;50.936;6.978;2023-03-13T06:38:51;99693.81;;;15.53;64.88
20825;BME280;10573;50.936;6.978;2023-03-13T06:41:16;99694.69;;;15.60;64.77
20825;BME280;10573;50.936;6.978;2023-03-13T06:43:42;99699.97;;;15.61;64.60
20825;BME280;10573;50.936;6.978;2023-03-13T06:46:15;99701.22;;;15.59;64.84
20825;BME280;10573;50.936;6.978;2023-03-13T06:48:41;99696.81;;;15.58;64.74
20825;BME280;10573;50.936;6.978;2023-03-13T06:51:12;99700.44;;;15.72;64.72
20825;BME280;10573;50.936;6.978;2023-03-13T06:53:38;99704.47;;;15.76;64.46
20825;BME280;10573;50.936;6.978;2023-03-13T06:56:04;99703.63;;;15.75;64.47
20825;BME280;10573;50.936;6.978;2023-03-13T06:58:29;99708.59;;;16.00;63.86
20825;BME280;10573;50.936;6.978;2023-03-13T07:00:55;99705.13;;;15.78;64.22
20825;BME280;10573;50.936;6.978;2023-03-13T07:03:20;99715.75;;;15.88;64.09
20825;BME280;10573;50.936;6.978;2023-03-13T07:05:45;99711.72;;;15.84;63.95
20825;BME280;10573;50.936;6.978;2023-03-13T07:08:11;99711.75;;;15.97;63.75
20825;BME280;10573;50.936;6.978;2023-03-13T07:10:36;99717.69;;;15.94;63.58
20825;BME280;10573;50.936;6.978;2023-03-13T07:13:02;99711.75;;;15.90;63.85
20825;BME280;10573;50.936;6.978;2023-03-13T07:15:27;99729.91;;;15.85;63.65
20825;BME280;10573;50.936;6.978;2023-03-13T07:17:55;99710.13;;;16.16;62.80
20825;BME280;10573;50.936;6.978;2023-03-13T07:20:21;99710.88;;;15.90;63.47
20825;BME280;10573;50.936;6.978;2023-03-13T07:22:50;99709.69;;;16.13;63.03
20825;BME280;10573;50.936;6.978;2023-03-13T07:25:16;99716.88;;;16.14;62.49
20825;BME280;10573;50.936;6.978;2023-03-13T07:27:41;99721.31;;;16.08;62.30
20825;BME280;10573;50.936;6.978;2023-03-13T07:30:07;99720.50;;;16.34;61.56
20825;BME280;10573;50.936;6.978;2023-03-13T07:32:33;99718.75;;;16.06;61.63
20825;BME280;10573;50.936;6.978;2023-03-13T07:34:58;99713.94;;;16.28;61.15
20825;BME280;10573;50.936;6.978;2023-03-13T07:37:23;99722.00;;;16.43;60.48
20825;BME280;10573;50.936;6.978;2023-03-13T07:39:49;99717.50;;;16.02;60.73
20825;BME280;10573;50.936;6.978;2023-03-13T07:42:14;99715.69;;;16.50;59.69
20825;BME280;10573;50.936;6.978;2023-03-13T07:44:40;99696.84;;;16.33;59.50
20825;BME280;10573;50.936;6.978;2023-03-13T07:47:05;99689.66;;;16.46;59.01
20825;BME280;10573;50.936;6.978;2023-03-13T07:49:31;99680.59;;;16.65;57.97
20825;BME280;10573;50.936;6.978;2023-03-13T07:51:56;99687.34;;;16.69;57.89
20825;BME280;10573;50.936;6.978;2023-03-13T07:54:22;99688.78;;;16.85;57.12
20825;BME280;10573;50.936;6.978;2023-03-13T07:56:47;99675.28;;;17.04;56.62
20825;BME280;10573;50.936;6.978;2023-03-13T07:59:13;99685.22;;;16.71;57.33
20825;BME280;10573;50.936;6.978;2023-03-13T08:01:38;99670.00;;;16.62;57.60
20825;BME280;10573;50.936;6.978;2023-03-13T08:04:04;99676.38;;;16.96;56.50
20825;BME280;10573;50.936;6.978;2023-03-13T08:06:31;99675.91;;;16.86;56.79
20825;BME280;10573;50.936;6.978;2023-03-13T08:08:57;99674.00;;;16.66;57.12
20825;BME280;10573;50.936;6.978;2023-03-13T08:11:24;99679.72;;;16.51;57.33
20825;BME280;10573;50.936;6.978;2023-03-13T08:13:54;99674.66;;;16.75;56.71
20825;BME280;10573;50.936;6.978;2023-03-13T08:16:25;99664.25;;;16.77;56.76
20825;BME280;10573;50.936;6.978;2023-03-13T08:18:53;99657.25;;;17.15;55.99
20825;BME280;10573;50.936;6.978;2023-03-13T08:21:21;99664.09;;;16.72;56.18
20825;BME280;10573;50.936;6.978;2023-03-13T08:23:48;99657.09;;;16.96;56.31
20825;BME280;10573;50.936;6.978;2023-03-13T08:26:19;99657.94;;;16.76;56.39
20825;BME280;10573;50.936;6.978;2023-03-13T08:28:46;99666.19;;;16.90;55.82
20825;BME280;10573;50.936;6.978;2023-03-13T08:31:20;99651.16;;;17.06;55.71
20825;BME280;10573;50.936;6.978;2023-03-13T08:33:46;99657.09;;;16.76;56.32
20825;BME280;10573;50.936;6.978;2023-03-13T08:36:19;99651.59;;;16.76;56.60
20825;BME280;10573;50.936;6.978;2023-03-13T08:38:46;99661.75;;;16.49;57.55
20825;BME280;10573;50.936;6.978;2023-03-13T08:41:14;99652.44;;;16.63;57.68
20825;BME280;10573;50.936;6.978;2023-03-13T08:43:40;99667.25;;;16.69;58.17
20825;BME280;10573;50.936;6.978;2023-03-13T08:46:06;99670.63;;;16.51;59.32
20825;BME280;10573;50.936;6.978;2023-03-13T08:48:31;99664.91;;;16.59;59.23
20825;BME280;10573;50.936;6.978;2023-03-13T08:51:24;99667.88;;;16.44;59.64
20825;BME280;10573;50.936;6.978;2023-03-13T08:53:51;99667.66;;;16.46;59.74
20825;BME280;10573;50.936;6.978;2023-03-13T08:56:19;99658.38;;;16.60;59.40
20825;BME280;10573;50.936;6.978;2023-03-13T08:58:55;99646.50;;;16.73;58.97
20825;BME280;10573;50.936;6.978;2023-03-13T09:01:23;99658.38;;;16.93;58.65
20825;BME280;10573;50.936;6.978;2023-03-13T09:03:49;99651.19;;;16.59;59.44
20825;BME280;10573;50.936;6.978;2023-03-13T09:06:14;99649.25;;;16.66;59.38
20825;BME280;10573;50.936;6.978;2023-03-13T09:08:41;99655.59;;;16.87;58.82
20825;BME280;10573;50.936;6.978;2023-03-13T09:11:15;99646.94;;;16.90;58.79
20825;BME280;10573;50.936;6.978;2023-03-13T09:13:44;99643.34;;;17.03;58.52
20825;BME280;10573;50.936;6.978;2023-03-13T09:16:12;99649.25;;;16.80;59.00
20825;BME280;10573;50.936;6.978;2023-03-13T09:18:39;99652.22;;;16.98;58.80
20825;BME280;10573;50.936;6.978;2023-03-13T09:21:07;99644.63;;;16.67;59.37
20825;BME280;10573;50.936;6.978;2023-03-13T09:23:33;99644.19;;;16.90;59.43
20825;BME280;10573;50.936;6.978;2023-03-13T09:25:58;99630.66;;;16.75;59.57
20825;BME280;10573;50.936;6.978;2023-03-13T09:28:25;99642.25;;;16.97;59.13
20825;BME280;10573;50.936;6.978;2023-03-13T09:30:51;99640.59;;;16.69;59.33
20825;BME280;10573;50.936;6.978;2023-03-13T09:33:18;99632.34;;;16.69;59.91
20825;BME280;10573;50.936;6.978;2023-03-13T09:35:44;99631.94;;;16.66;60.47
20825;BME280;10573;50.936;6.978;2023-03-13T09:38:19;99633.59;;;16.87;59.73
20825;BME280;10573;50.936;6.978;2023-03-13T09:40:47;99630.38;;;17.17;59.36
20825;BME280;10573;50.936;6.978;2023-03-13T09:43:38;99621.72;;;17.00;59.72
20825;BME280;10573;50.936;6.978;2023-03-13T09:46:10;99616.91;;;16.68;60.31
20825;BME280;10573;50.936;6.978;2023-03-13T09:48:48;99617.94;;;16.81;60.01
20825;BME280;10573;50.936;6.978;2023-03-13T09:51:22;99612.03;;;16.70;60.23
20825;BME280;10573;50.936;6.978;2023-03-13T09:56:34;99611.75;;;17.05;59.32
20825;BME280;10573;50.936;6.978;2023-03-13T09:59:13;99617.94;;;16.94;60.05
20825;BME280;10573;50.936;6.978;2023-03-13T10:01:42;99612.00;;;16.97;59.97
20825;BME280;10573;50.936;6.978;2023-03-13T10:04:14;99606.00;;;17.27;59.29
20825;BME280;10573;50.936;6.978;2023-03-13T10:06:48;99612.38;;;17.21;59.50
20825;BME280;10573;50.936;6.978;2023-03-13T10:09:19;99607.72;;;17.15;59.68
20825;BME280;10573;50.936;6.978;2023-03-13T10:12:46;99601.13;;;17.68;58.51
20825;BME280;10573;50.936;6.978;2023-03-13T10:17:38;99593.59;;;17.50;58.75
20825;BME280;10573;50.936;6.978;2023-03-13T10:20:22;99596.91;;;17.65;58.75
20825;BME280;10573;50.936;6.978;2023-03-13T10:22:52;99590.53;;;17.71;58.33
20825;BME280;10573;50.936;6.978;2023-03-13T10:25:27;99579.97;;;17.61;58.46
20825;BME280;10573;50.936;6.978;2023-03-13T10:27:54;99563.72;;;17.92;58.32
20825;BME280;10573;50.936;6.978;2023-03-13T10:30:26;99571.16;;;17.85;57.78
20825;BME280;10573;50.936;6.978;2023-03-13T10:35:35;99565.34;;;18.25;55.94
20825;BME280;10573;50.936;6.978;2023-03-13T10:38:07;99559.69;;;18.20;55.68
20825;BME280;10573;50.936;6.978;2023-03-13T10:40:33;99547.63;;;18.39;55.17
20825;BME280;10573;50.936;6.978;2023-03-13T10:43:12;99543.31;;;18.69;54.78
20825;BME280;10573;50.936;6.978;2023-03-13T10:45:38;99544.56;;;18.29;55.41
20825;BME280;10573;50.936;6.978;2023-03-13T10:48:15;99529.56;;;18.43;54.95
20825;BME280;10573;50.936;6.978;2023-03-13T10:50:46;99550.28;;;18.27;55.31
20825;BME280;10573;50.936;6.978;2023-03-13T10:53:40;99553.16;;;18.39;55.01
20825;BME280;10573;50.936;6.978;2023-03-13T10:56:14;99530.59;;;18.49;54.89
20825;BME280;10573;50.936;6.978;2023-03-13T10:58:51;99536.81;;;18.63;54.04
20825;BME280;10573;50.936;6.978;2023-03-13T11:01:21;99528.28;;;18.65;53.48
20825;BME280;10573;50.936;6.978;2023-03-13T11:03:48;99523.47;;;18.78;53.30
20825;BME280;10573;50.936;6.978;2023-03-13T11:06:26;99516.44;;;19.01;53.13
20825;BME280;10573;50.936;6.978;2023-03-13T11:11:24;99512.16;;;18.87;53.47
20825;BME280;10573;50.936;6.978;2023-03-13T11:14:07;99509.03;;;18.39;54.68
20825;BME280;10573;50.936;6.978;2023-03-13T11:16:37;99502.63;;;18.45;54.66
20825;BME280;10573;50.936;6.978;2023-03-13T11:27:01;99471.75;;;19.23;52.24
20825;BME280;10573;50.936;6.978;2023-03-13T11:29:44;99467.78;;;19.19;52.46
20825;BME280;10573;50.936;6.978;2023-03-13T11:32:22;99443.91;;;19.55;52.01
20825;BME280;10573;50.936;6.978;2023-03-13T11:34:53;99451.31;;;19.42;51.99
20825;BME280;10573;50.936;6.978;2023-03-13T11:37:23;99448.28;;;19.74;51.49
20825;BME280;10573;50.936;6.978;2023-03-13T11:45:29;99417.44;;;19.89;50.73
20825;BME280;10573;50.936;6.978;2023-03-13T11:48:12;99413.59;;;19.36;51.68
20825;BME280;10573;50.936;6.978;2023-03-13T11:56:51;99386.16;;;19.77;50.93
20825;BME280;10573;50.936;6.978;2023-03-13T12:02:22;99384.16;;;19.96;50.19
20825;BME280;10573;50.936;6.978;2023-03-13T12:04:56;99386.44;;;19.33;50.96
20825;BME280;10573;50.936;6.978;2023-03-13T12:07:35;99384.53;;;19.34;50.89
20825;BME280;10573;50.936;6.978;2023-03-13T12:10:17;99388.03;;;18.99;51.35
20825;BME280;10573;50.936;6.978;2023-03-13T12:13:04;99381.66;;;19.40;50.85
20825;BME280;10573;50.936;6.978;2023-03-13T12:15:40;99387.75;;;18.88;52.33
20825;BME280;10573;50.936;6.978;2023-03-13T12:18:21;99376.81;;;19.90;50.48
20825;BME280;10573;50.936;6.978;2023-03-13T12:26:03;99348.53;;;20.11;47.76
20825;BME280;10573;50.936;6.978;2023-03-13T12:28:42;99375.88;;;20.49;46.68
20825;BME280;10573;50.936;6.978;2023-03-13T12:31:39;99340.38;;;21.15;45.47
20825;BME280;10573;50.936;6.978;2023-03-13T12:34:20;99332.41;;;20.61;46.28
20825;BME280;10573;50.936;6.978;2023-03-13T12:36:57;99348.72;;;20.45;46.76
20825;BME280;10573;50.936;6.978;2023-03-13T12:39:29;99350.84;;;19.91;47.68
20825;BME280;10573;50.936;6.978;2023-03-13T12:42:17;99315.41;;;19.88;48.03
20825;BME280;10573;50.936;6.978;2023-03-13T12:44:45;99344.50;;;20.02;48.15
20825;BME280;10573;50.936;6.978;2023-03-13T12:47:31;99312.16;;;19.55;49.31
20825;BME280;10573;50.936;6.978;2023-03-13T12:58:51;99311.47;;;20.36;47.16
20825;BME280;10573;50.936;6.978;2023-03-13T13:03:56;99301.56;;;20.81;46.61
20825;BME280;10573;50.936;6.978;2023-03-13T13:06:23;99296.91;;;21.16;45.87
20825;BME280;10573;50.936;6.978;2023-03-13T13:13:59;99306.72;;;20.20;48.03
20825;BME280;10573;50.936;6.978;2023-03-13T13:16:25;99296.91;;;19.53;49.36
20825;BME280;10573;50.936;6.978;2023-03-13T13:18:51;99297.63;;;19.60;49.65
20825;BME280;10573;50.936;6.978;2023-03-13T13:21:19;99301.59;;;19.88;49.67
20825;BME280;10573;50.936;6.978;2023-03-13T13:23:46;99304.56;;;19.15;51.17
20825;BME280;10573;50.936;6.978;2023-03-13T13:28:49;99290.66;;;19.22;51.22
20825;BME280;10573;50.936;6.978;2023-03-13T13:34:01;99294.44;;;18.97;52.02
20825;BME280;10573;50.936;6.978;2023-03-13T13:36:28;99291.72;;;18.78;52.62
20825;BME280;10573;50.936;6.978;2023-03-13T13:38:54;99267.69;;;18.98;52.60
20825;BME280;10573;50.936;6.978;2023-03-13T13:41:24;99263.72;;;19.05;52.48
20825;BME280;10573;50.936;6.978;2023-03-13T13:44:20;99273.72;;;19.18;52.02
20825;BME280;10573;50.936;6.978;2023-03-13T13:46:46;99270.94;;;19.18;52.00
20825;BME280;10573;50.936;6.978;2023-03-13T13:49:19;99262.69;;;19.42;51.83
20825;BME280;10573;50.936;6.978;2023-03-13T13:57:14;99260.78;;;18.46;54.51
20825;BME280;10573;50.936;6.978;2023-03-13T13:59:47;99243.16;;;18.77;54.02
20825;BME280;10573;50.936;6.978;2023-03-13T14:02:20;99233.88;;;19.14;52.90
20825;BME280;10573;50.936;6.978;2023-03-13T14:07:49;99230.38;;;19.31;52.97
20825;BME280;10573;50.936;6.978;2023-03-13T14:10:30;99211.97;;;19.72;51.67
20825;BME280;10573;50.936;6.978;2023-03-13T14:12:59;99215.91;;;19.76;51.18
20825;BME280;10573;50.936;6.978;2023-03-13T14:15:28;99196.69;;;19.93;50.67
20825;BME280;10573;50.936;6.978;2023-03-13T14:17:59;99182.81;;;20.05;50.06
20825;BME280;10573;50.936;6.978;2023-03-13T14:20:35;99180.06;;;20.51;49.03
20825;BME280;10573;50.936;6.978;2023-03-13T14:23:06;99176.72;;;20.49;49.17
20825;BME280;10573;50.936;6.978;2023-03-13T14:25:48;99188.59;;;20.32;49.25
20825;BME280;10573;50.936;6.978;2023-03-13T14:28:23;99176.41;;;19.75;50.60
20825;BME280;10573;50.936;6.978;2023-03-13T14:30:51;99182.34;;;19.43;51.31